createdAt,value
2023-05-13T00:09:18.772Z,8.90
2023-05-13T00:19:26.660Z,9.30
2023-05-13T00:29:28.597Z,11.23
2023-05-13T00:39:30.489Z,12.27
2023-05-13T00:49:35.509Z,12.27
2023-05-13T00:59:40.348Z,10.40
2023-05-13T01:10:09.374Z,10.13
2023-05-13T01:20:12.280Z,12.25
2023-05-13T01:30:15.485Z,7.97
2023-05-13T01:40:31.909Z,12.38
2023-05-13T01:50:34.459Z,14.07
2023-05-13T02:00:38.410Z,8.85
2023-05-13T02:10:56.931Z,15.15
2023-05-13T02:20:58.832Z,12.95
2023-05-13T02:31:01.749Z,10.60
2023-05-13T02:41:03.676Z,9.82
2023-05-13T02:51:09.817Z,13.75
2023-05-13T03:01:19.748Z,12.80
2023-05-13T03:11:21.919Z,10.95
2023-05-13T03:21:23.902Z,15.05
2023-05-13T03:31:26.175Z,16.40
2023-05-13T03:41:29.390Z,16.70
2023-05-13T03:51:33.220Z,9.93
2023-05-13T04:01:36.670Z,12.85
2023-05-13T04:11:38.613Z,12.73
2023-05-13T04:21:40.574Z,11.00
2023-05-13T04:31:43.782Z,16.55
2023-05-13T04:41:49.801Z,13.10
2023-05-13T04:51:51.688Z,16.42
2023-05-13T05:01:55.139Z,11.75
2023-05-13T05:11:56.989Z,12.45
2023-05-13T05:21:58.861Z,11.48
2023-05-13T05:32:01.012Z,10.90
2023-05-13T05:42:03.233Z,11.73
2023-05-13T05:52:05.588Z,9.85
2023-05-13T06:02:08.544Z,12.23
2023-05-13T06:12:10.551Z,10.40
2023-05-13T06:22:12.495Z,10.90
2023-05-13T06:32:15.012Z,10.32
2023-05-13T06:42:21.500Z,7.78
2023-05-13T07:02:28.223Z,6.13
2023-05-13T07:12:37.281Z,7.72
2023-05-13T07:23:07.153Z,6.38
2023-05-13T07:33:11.466Z,6.57
2023-05-13T07:43:14.471Z,3.92
2023-05-13T07:53:24.107Z,6.32
2023-05-13T08:03:26.191Z,4.07
2023-05-13T08:13:28.279Z,4.55
2023-05-13T08:23:40.840Z,5.78
2023-05-13T08:33:48.737Z,3.20
2023-05-13T08:43:54.470Z,17.65
2023-05-13T08:53:56.724Z,4.55
2023-05-13T09:04:02.167Z,13.15
2023-05-13T09:14:05.848Z,3.97
2023-05-13T09:24:13.737Z,3.47
2023-05-13T09:34:25.459Z,4.57
2023-05-13T09:44:27.555Z,2.10
2023-05-13T09:54:35.397Z,5.13
2023-05-13T10:04:37.922Z,4.97
2023-05-13T10:14:48.247Z,3.13
2023-05-13T10:24:50.397Z,5.20
2023-05-13T10:35:08.946Z,2.30
2023-05-13T10:45:11.599Z,3.85
2023-05-13T10:55:20.636Z,4.38
2023-05-13T11:05:22.879Z,4.68
2023-05-13T11:15:43.281Z,2.70
2023-05-13T11:25:46.391Z,4.32
2023-05-13T11:35:56.868Z,4.30
2023-05-13T11:45:59.883Z,5.82
2023-05-13T11:56:13.030Z,3.45
2023-05-13T12:06:16.105Z,2.35
2023-05-13T12:16:18.301Z,4.20
2023-05-13T12:26:21.941Z,4.93
2023-05-13T12:36:36.150Z,3.20
2023-05-13T12:46:38.351Z,5.15
2023-05-13T12:56:40.724Z,7.13
2023-05-13T13:06:43.012Z,4.22
2023-05-13T13:16:44.967Z,3.60
2023-05-13T13:26:50.130Z,2.33
2023-05-13T13:36:53.123Z,4.18
2023-05-13T13:46:55.264Z,6.57
2023-05-13T13:56:57.171Z,20.00
2023-05-13T14:07:00.412Z,3.13
2023-05-13T14:17:02.450Z,3.80
2023-05-13T14:27:04.604Z,2.70
2023-05-13T14:37:06.567Z,4.05
2023-05-13T14:47:09.081Z,4.97
2023-05-13T14:57:12.188Z,2.92
2023-05-13T15:07:14.219Z,7.57
2023-05-13T15:17:19.533Z,17.23
2023-05-13T15:27:26.057Z,3.95
2023-05-13T15:37:28.991Z,3.70
2023-05-13T15:47:31.265Z,3.63
2023-05-13T15:57:45.125Z,3.15
2023-05-13T16:07:47.234Z,3.40
2023-05-13T16:17:49.407Z,4.40
2023-05-13T16:27:51.489Z,5.55
2023-05-13T16:37:55.921Z,2.20
2023-05-13T16:47:58.103Z,3.47
2023-05-13T16:58:01.727Z,4.78
2023-05-13T17:08:06.943Z,5.75
2023-05-13T17:18:09.961Z,4.18
2023-05-13T17:28:11.944Z,8.45
2023-05-13T17:38:15.884Z,11.98
2023-05-13T17:48:17.928Z,8.98
2023-05-13T17:58:20.010Z,8.43
2023-05-13T18:08:24.156Z,2.85
2023-05-13T18:18:28.276Z,6.95
2023-05-13T18:28:32.392Z,4.22
2023-05-13T18:38:34.509Z,4.80
2023-05-13T18:48:38.657Z,10.95
2023-05-13T18:58:41.007Z,20.25
2023-05-13T19:08:44.183Z,19.65
2023-05-13T19:18:48.054Z,16.90
2023-05-13T19:28:50.365Z,21.75
2023-05-13T19:38:53.380Z,18.15
2023-05-13T19:48:55.499Z,12.68
2023-05-13T19:58:57.529Z,10.52
2023-05-13T20:09:01.027Z,9.43
2023-05-13T20:19:08.914Z,9.02
2023-05-13T20:29:15.048Z,19.05
2023-05-13T20:39:17.640Z,19.13
2023-05-13T20:49:31.386Z,22.92
2023-05-13T20:59:33.403Z,29.98
2023-05-13T21:09:35.394Z,22.23
2023-05-13T21:19:37.538Z,20.65
2023-05-13T21:29:39.677Z,23.60
2023-05-13T21:39:42.964Z,24.73
2023-05-13T21:49:44.989Z,22.35
2023-05-13T22:07:11.430Z,23.52
2023-05-13T22:17:34.179Z,18.48
2023-05-13T22:27:36.258Z,21.02
2023-05-13T22:37:39.281Z,18.10
2023-05-13T22:47:41.291Z,19.25
2023-05-13T22:57:43.208Z,21.45
2023-05-13T23:07:46.183Z,22.40
2023-05-13T23:17:48.197Z,19.42
2023-05-13T23:27:58.163Z,17.08
2023-05-13T23:38:00.838Z,16.25
2023-05-13T23:48:03.774Z,15.35
2023-05-13T23:58:05.772Z,15.77
